sensor_id;sensor_type;location;lat;lon;timestamp;P1;durP1;ratioP1;P2;durP2;ratioP2
80136;SDS011;69466;55.948;37.484;2023-08-21T00:01:31;7.30;;;4.50;;
80136;SDS011;69466;55.948;37.484;2023-08-21T00:03:57;6.72;;;4.43;;
80136;SDS011;69466;55.948;37.484;2023-08-21T00:06:23;8.15;;;4.78;;
80136;SDS011;69466;55.948;37.484;2023-08-21T00:08:49;7.05;;;4.57;;
80136;SDS011;69466;55.948;37.484;2023-08-21T00:11:15;13.70;;;5.68;;
80136;SDS011;69466;55.948;37.484;2023-08-21T00:13:41;9.25;;;5.13;;
80136;SDS011;69466;55.948;37.484;2023-08-21T00:16:13;7.60;;;4.80;;
80136;SDS011;69466;55.948;37.484;2023-08-21T00:18:39;8.18;;;4.55;;
80136;SDS011;69466;55.948;37.484;2023-08-21T00:21:05;8.18;;;5.13;;
80136;SDS011;69466;55.948;37.484;2023-08-21T00:23:31;8.90;;;5.00;;
80136;SDS011;69466;55.948;37.484;2023-08-21T00:25:57;8.35;;;5.13;;
80136;SDS011;69466;55.948;37.484;2023-08-21T00:28:23;7.97;;;4.32;;
80136;SDS011;69466;55.948;37.484;2023-08-21T00:30:50;8.02;;;4.70;;
80136;SDS011;69466;55.948;37.484;2023-08-21T00:33:16;7.68;;;5.15;;
80136;SDS011;69466;55.948;37.484;2023-08-21T00:35:42;8.68;;;4.82;;
80136;SDS011;69466;55.948;37.484;2023-08-21T00:38:08;6.95;;;4.20;;
80136;SDS011;69466;55.948;37.484;2023-08-21T00:40:34;8.73;;;4.68;;
80136;SDS011;69466;55.948;37.484;2023-08-21T00:43:00;6.75;;;3.85;;
80136;SDS011;69466;55.948;37.484;2023-08-21T00:45:26;6.75;;;4.07;;
80136;SDS011;69466;55.948;37.484;2023-08-21T00:47:52;7.38;;;4.25;;
80136;SDS011;69466;55.948;37.484;2023-08-21T00:50:18;11.95;;;4.40;;
80136;SDS011;69466;55.948;37.484;2023-08-21T00:52:44;7.00;;;4.30;;
80136;SDS011;69466;55.948;37.484;2023-08-21T00:55:12;6.68;;;3.95;;
80136;SDS011;69466;55.948;37.484;2023-08-21T00:57:39;7.82;;;3.90;;
80136;SDS011;69466;55.948;37.484;2023-08-21T01:00:07;7.55;;;3.90;;
80136;SDS011;69466;55.948;37.484;2023-08-21T01:02:38;7.05;;;4.13;;
80136;SDS011;69466;55.948;37.484;2023-08-21T01:05:04;8.82;;;3.97;;
80136;SDS011;69466;55.948;37.484;2023-08-21T01:07:32;7.85;;;3.65;;
80136;SDS011;69466;55.948;37.484;2023-08-21T01:10:10;5.93;;;3.83;;
80136;SDS011;69466;55.948;37.484;2023-08-21T01:12:45;6.85;;;4.10;;
80136;SDS011;69466;55.948;37.484;2023-08-21T01:15:22;5.88;;;3.78;;
80136;SDS011;69466;55.948;37.484;2023-08-21T01:17:48;9.05;;;4.35;;
80136;SDS011;69466;55.948;37.484;2023-08-21T01:20:15;6.63;;;4.10;;
80136;SDS011;69466;55.948;37.484;2023-08-21T01:22:42;6.72;;;3.65;;
80136;SDS011;69466;55.948;37.484;2023-08-21T01:25:11;6.38;;;3.75;;
80136;SDS011;69466;55.948;37.484;2023-08-21T01:27:41;6.60;;;3.33;;
80136;SDS011;69466;55.948;37.484;2023-08-21T01:30:11;7.85;;;3.67;;
80136;SDS011;69466;55.948;37.484;2023-08-21T01:35:26;6.68;;;3.60;;
80136;SDS011;69466;55.948;37.484;2023-08-21T01:37:55;6.32;;;4.03;;
80136;SDS011;69466;55.948;37.484;2023-08-21T01:40:22;7.65;;;3.97;;
80136;SDS011;69466;55.948;37.484;2023-08-21T01:42:49;7.25;;;3.78;;
80136;SDS011;69466;55.948;37.484;2023-08-21T01:45:15;7.00;;;3.25;;
80136;SDS011;69466;55.948;37.484;2023-08-21T01:47:42;8.77;;;3.88;;
80136;SDS011;69466;55.948;37.484;2023-08-21T01:50:08;6.93;;;3.95;;
80136;SDS011;69466;55.948;37.484;2023-08-21T01:52:34;8.18;;;3.72;;
80136;SDS011;69466;55.948;37.484;2023-08-21T01:55:00;5.65;;;3.35;;
80136;SDS011;69466;55.948;37.484;2023-08-21T01:57:27;7.47;;;3.80;;
80136;SDS011;69466;55.948;37.484;2023-08-21T01:59:53;8.88;;;4.10;;
80136;SDS011;69466;55.948;37.484;2023-08-21T02:02:19;6.93;;;3.50;;
80136;SDS011;69466;55.948;37.484;2023-08-21T02:04:45;7.45;;;3.55;;
80136;SDS011;69466;55.948;37.484;2023-08-21T02:07:11;6.57;;;3.60;;
80136;SDS011;69466;55.948;37.484;2023-08-21T02:09:37;6.30;;;3.80;;
80136;SDS011;69466;55.948;37.484;2023-08-21T02:12:03;7.25;;;4.40;;
80136;SDS011;69466;55.948;37.484;2023-08-21T02:14:29;7.40;;;3.60;;
80136;SDS011;69466;55.948;37.484;2023-08-21T02:16:55;7.47;;;3.90;;
80136;SDS011;69466;55.948;37.484;2023-08-21T02:19:21;7.38;;;3.50;;
80136;SDS011;69466;55.948;37.484;2023-08-21T02:21:47;7.45;;;3.83;;
80136;SDS011;69466;55.948;37.484;2023-08-21T02:24:13;7.05;;;3.53;;
80136;SDS011;69466;55.948;37.484;2023-08-21T02:26:39;7.05;;;3.40;;
80136;SDS011;69466;55.948;37.484;2023-08-21T02:29:05;9.77;;;3.92;;
80136;SDS011;69466;55.948;37.484;2023-08-21T02:31:32;5.78;;;2.95;;
80136;SDS011;69466;55.948;37.484;2023-08-21T02:33:58;6.30;;;3.28;;
80136;SDS011;69466;55.948;37.484;2023-08-21T02:36:24;8.02;;;3.95;;
80136;SDS011;69466;55.948;37.484;2023-08-21T02:38:50;7.28;;;3.90;;
80136;SDS011;69466;55.948;37.484;2023-08-21T02:41:16;8.23;;;3.55;;
80136;SDS011;69466;55.948;37.484;2023-08-21T02:43:44;8.85;;;4.13;;
80136;SDS011;69466;55.948;37.484;2023-08-21T02:46:09;7.70;;;3.63;;
80136;SDS011;69466;55.948;37.484;2023-08-21T02:48:35;8.52;;;3.60;;
80136;SDS011;69466;55.948;37.484;2023-08-21T02:51:01;5.53;;;3.20;;
80136;SDS011;69466;55.948;37.484;2023-08-21T02:53:28;7.05;;;3.35;;
80136;SDS011;69466;55.948;37.484;2023-08-21T02:55:55;7.18;;;3.47;;
80136;SDS011;69466;55.948;37.484;2023-08-21T02:58:21;5.50;;;3.42;;
80136;SDS011;69466;55.948;37.484;2023-08-21T03:00:47;7.93;;;3.47;;
80136;SDS011;69466;55.948;37.484;2023-08-21T03:03:13;6.85;;;3.50;;
80136;SDS011;69466;55.948;37.484;2023-08-21T03:05:39;7.03;;;2.80;;
80136;SDS011;69466;55.948;37.484;2023-08-21T03:08:05;5.57;;;2.60;;
80136;SDS011;69466;55.948;37.484;2023-08-21T03:10:31;7.07;;;3.08;;
80136;SDS011;69466;55.948;37.484;2023-08-21T03:13:00;4.78;;;2.30;;
80136;SDS011;69466;55.948;37.484;2023-08-21T03:15:26;5.07;;;2.30;;
80136;SDS011;69466;55.948;37.484;2023-08-21T03:17:53;5.43;;;2.90;;
80136;SDS011;69466;55.948;37.484;2023-08-21T03:20:18;4.60;;;2.13;;
80136;SDS011;69466;55.948;37.484;2023-08-21T03:22:45;5.40;;;2.28;;
80136;SDS011;69466;55.948;37.484;2023-08-21T03:25:12;5.72;;;2.33;;
80136;SDS011;69466;55.948;37.484;2023-08-21T03:27:38;4.78;;;2.58;;
80136;SDS011;69466;55.948;37.484;2023-08-21T03:30:06;5.00;;;1.98;;
80136;SDS011;69466;55.948;37.484;2023-08-21T03:32:33;4.95;;;2.20;;
80136;SDS011;69466;55.948;37.484;2023-08-21T03:34:59;6.38;;;1.95;;
80136;SDS011;69466;55.948;37.484;2023-08-21T03:37:25;4.18;;;2.22;;
80136;SDS011;69466;55.948;37.484;2023-08-21T03:39:51;8.80;;;2.28;;
80136;SDS011;69466;55.948;37.484;2023-08-21T03:42:17;7.70;;;1.90;;
80136;SDS011;69466;55.948;37.484;2023-08-21T03:44:44;3.53;;;1.60;;
80136;SDS011;69466;55.948;37.484;2023-08-21T03:47:11;3.97;;;2.08;;
80136;SDS011;69466;55.948;37.484;2023-08-21T03:49:48;4.65;;;1.70;;
80136;SDS011;69466;55.948;37.484;2023-08-21T03:52:15;3.47;;;1.63;;
80136;SDS011;69466;55.948;37.484;2023-08-21T03:54:41;5.30;;;2.17;;
80136;SDS011;69466;55.948;37.484;2023-08-21T03:57:08;4.00;;;1.73;;
80136;SDS011;69466;55.948;37.484;2023-08-21T03:59:34;4.93;;;1.80;;
80136;SDS011;69466;55.948;37.484;2023-08-21T04:02:00;3.72;;;1.63;;
80136;SDS011;69466;55.948;37.484;2023-08-21T04:04:26;3.25;;;1.58;;
80136;SDS011;69466;55.948;37.484;2023-08-21T04:06:52;4.75;;;1.88;;
80136;SDS011;69466;55.948;37.484;2023-08-21T04:09:18;5.78;;;1.60;;
80136;SDS011;69466;55.948;37.484;2023-08-21T04:11:44;4.25;;;1.30;;
80136;SDS011;69466;55.948;37.484;2023-08-21T04:14:09;7.53;;;1.52;;
80136;SDS011;69466;55.948;37.484;2023-08-21T04:16:35;4.22;;;1.50;;
80136;SDS011;69466;55.948;37.484;2023-08-21T04:19:01;3.67;;;1.30;;
80136;SDS011;69466;55.948;37.484;2023-08-21T04:21:28;6.70;;;1.60;;
80136;SDS011;69466;55.948;37.484;2023-08-21T04:23:55;3.83;;;1.25;;
80136;SDS011;69466;55.948;37.484;2023-08-21T04:26:21;5.03;;;1.70;;
80136;SDS011;69466;55.948;37.484;2023-08-21T04:28:47;4.78;;;1.15;;
80136;SDS011;69466;55.948;37.484;2023-08-21T04:31:13;4.38;;;1.20;;
80136;SDS011;69466;55.948;37.484;2023-08-21T04:33:40;4.60;;;1.40;;
80136;SDS011;69466;55.948;37.484;2023-08-21T04:36:07;3.92;;;1.38;;
80136;SDS011;69466;55.948;37.484;2023-08-21T04:38:33;3.65;;;1.33;;
80136;SDS011;69466;55.948;37.484;2023-08-21T04:41:06;3.38;;;1.20;;
80136;SDS011;69466;55.948;37.484;2023-08-21T04:43:35;3.10;;;1.27;;
80136;SDS011;69466;55.948;37.484;2023-08-21T04:46:02;3.58;;;1.40;;
80136;SDS011;69466;55.948;37.484;2023-08-21T04:48:29;4.40;;;1.40;;
80136;SDS011;69466;55.948;37.484;2023-08-21T04:50:56;5.35;;;1.58;;
80136;SDS011;69466;55.948;37.484;2023-08-21T04:53:25;4.30;;;1.63;;
80136;SDS011;69466;55.948;37.484;2023-08-21T04:55:51;2.75;;;1.25;;
80136;SDS011;69466;55.948;37.484;2023-08-21T04:58:17;2.42;;;0.93;;
80136;SDS011;69466;55.948;37.484;2023-08-21T05:00:46;3.22;;;1.40;;
80136;SDS011;69466;55.948;37.484;2023-08-21T05:03:13;3.65;;;1.60;;
80136;SDS011;69466;55.948;37.484;2023-08-21T05:05:41;3.10;;;1.25;;
80136;SDS011;69466;55.948;37.484;2023-08-21T05:08:08;3.88;;;1.08;;
80136;SDS011;69466;55.948;37.484;2023-08-21T05:10:35;3.40;;;1.33;;
80136;SDS011;69466;55.948;37.484;2023-08-21T05:13:01;3.90;;;1.30;;
80136;SDS011;69466;55.948;37.484;2023-08-21T05:15:29;4.60;;;1.60;;
80136;SDS011;69466;55.948;37.484;2023-08-21T05:17:55;4.55;;;1.35;;
80136;SDS011;69466;55.948;37.484;2023-08-21T05:20:21;3.13;;;1.20;;
80136;SDS011;69466;55.948;37.484;2023-08-21T05:22:47;4.70;;;1.60;;
80136;SDS011;69466;55.948;37.484;2023-08-21T05:25:14;4.47;;;1.30;;
80136;SDS011;69466;55.948;37.484;2023-08-21T05:27:40;12.25;;;1.65;;
80136;SDS011;69466;55.948;37.484;2023-08-21T05:30:06;5.95;;;1.42;;
80136;SDS011;69466;55.948;37.484;2023-08-21T05:32:33;3.85;;;1.40;;
80136;SDS011;69466;55.948;37.484;2023-08-21T05:34:59;2.70;;;1.30;;
80136;SDS011;69466;55.948;37.484;2023-08-21T05:37:25;11.43;;;1.60;;
80136;SDS011;69466;55.948;37.484;2023-08-21T05:39:53;4.95;;;1.75;;
80136;SDS011;69466;55.948;37.484;2023-08-21T05:42:19;3.40;;;1.08;;
80136;SDS011;69466;55.948;37.484;2023-08-21T05:44:46;3.33;;;1.17;;
80136;SDS011;69466;55.948;37.484;2023-08-21T05:47:12;3.03;;;1.05;;
80136;SDS011;69466;55.948;37.484;2023-08-21T05:49:38;3.55;;;1.40;;
80136;SDS011;69466;55.948;37.484;2023-08-21T05:52:04;3.55;;;1.30;;
80136;SDS011;69466;55.948;37.484;2023-08-21T05:54:31;3.40;;;1.30;;
80136;SDS011;69466;55.948;37.484;2023-08-21T05:56:57;6.10;;;1.88;;
80136;SDS011;69466;55.948;37.484;2023-08-21T05:59:27;6.18;;;1.63;;
80136;SDS011;69466;55.948;37.484;2023-08-21T06:01:55;3.27;;;0.97;;
80136;SDS011;69466;55.948;37.484;2023-08-21T06:04:21;2.80;;;1.20;;
80136;SDS011;69466;55.948;37.484;2023-08-21T06:06:56;3.92;;;1.13;;
80136;SDS011;69466;55.948;37.484;2023-08-21T06:09:22;3.35;;;1.23;;
80136;SDS011;69466;55.948;37.484;2023-08-21T06:11:48;2.85;;;1.13;;
80136;SDS011;69466;55.948;37.484;2023-08-21T06:14:14;3.13;;;1.00;;
80136;SDS011;69466;55.948;37.484;2023-08-21T06:16:40;4.05;;;1.27;;
80136;SDS011;69466;55.948;37.484;2023-08-21T06:19:06;3.58;;;1.00;;
80136;SDS011;69466;55.948;37.484;2023-08-21T06:21:32;3.28;;;1.35;;
80136;SDS011;69466;55.948;37.484;2023-08-21T06:23:58;5.03;;;1.00;;
80136;SDS011;69466;55.948;37.484;2023-08-21T06:26:24;3.20;;;1.20;;
80136;SDS011;69466;55.948;37.484;2023-08-21T06:28:51;3.22;;;1.20;;
80136;SDS011;69466;55.948;37.484;2023-08-21T06:31:17;2.75;;;1.10;;
80136;SDS011;69466;55.948;37.484;2023-08-21T06:33:44;2.25;;;0.82;;
80136;SDS011;69466;55.948;37.484;2023-08-21T06:36:10;2.88;;;1.08;;
80136;SDS011;69466;55.948;37.484;2023-08-21T06:38:36;3.63;;;1.00;;
80136;SDS011;69466;55.948;37.484;2023-08-21T06:41:02;2.97;;;1.05;;
80136;SDS011;69466;55.948;37.484;2023-08-21T06:43:29;5.25;;;1.20;;
80136;SDS011;69466;55.948;37.484;2023-08-21T06:45:56;2.78;;;0.90;;
80136;SDS011;69466;55.948;37.484;2023-08-21T06:48:22;3.83;;;1.17;;
80136;SDS011;69466;55.948;37.484;2023-08-21T06:50:48;4.07;;;1.55;;
80136;SDS011;69466;55.948;37.484;2023-08-21T06:53:14;3.33;;;1.17;;
80136;SDS011;69466;55.948;37.484;2023-08-21T06:55:41;3.42;;;1.30;;
80136;SDS011;69466;55.948;37.484;2023-08-21T06:58:10;3.00;;;1.30;;
80136;SDS011;69466;55.948;37.484;2023-08-21T07:00:37;4.47;;;1.30;;
80136;SDS011;69466;55.948;37.484;2023-08-21T07:03:03;3.15;;;1.10;;
80136;SDS011;69466;55.948;37.484;2023-08-21T07:05:33;3.55;;;1.17;;
80136;SDS011;69466;55.948;37.484;2023-08-21T07:07:59;3.28;;;1.38;;
80136;SDS011;69466;55.948;37.484;2023-08-21T07:10:25;4.78;;;1.60;;
80136;SDS011;69466;55.948;37.484;2023-08-21T07:12:52;4.75;;;1.83;;
80136;SDS011;69466;55.948;37.484;2023-08-21T07:15:18;4.75;;;1.90;;
80136;SDS011;69466;55.948;37.484;2023-08-21T07:17:44;5.43;;;1.55;;
80136;SDS011;69466;55.948;37.484;2023-08-21T07:20:11;4.20;;;1.23;;
80136;SDS011;69466;55.948;37.484;2023-08-21T07:22:37;3.97;;;1.60;;
80136;SDS011;69466;55.948;37.484;2023-08-21T07:25:04;6.97;;;1.55;;
80136;SDS011;69466;55.948;37.484;2023-08-21T07:27:33;7.90;;;2.13;;
80136;SDS011;69466;55.948;37.484;2023-08-21T07:29:59;5.13;;;2.55;;
80136;SDS011;69466;55.948;37.484;2023-08-21T07:32:25;5.63;;;2.03;;
80136;SDS011;69466;55.948;37.484;2023-08-21T07:34:54;4.30;;;1.50;;
80136;SDS011;69466;55.948;37.484;2023-08-21T07:37:21;5.00;;;1.40;;
80136;SDS011;69466;55.948;37.484;2023-08-21T07:39:47;5.70;;;1.70;;
80136;SDS011;69466;55.948;37.484;2023-08-21T07:42:13;5.38;;;1.35;;
80136;SDS011;69466;55.948;37.484;2023-08-21T07:44:39;4.75;;;1.58;;
80136;SDS011;69466;55.948;37.484;2023-08-21T07:47:06;3.75;;;1.40;;
80136;SDS011;69466;55.948;37.484;2023-08-21T07:49:32;4.80;;;1.70;;
80136;SDS011;69466;55.948;37.484;2023-08-21T07:51:58;3.05;;;1.25;;
80136;SDS011;69466;55.948;37.484;2023-08-21T07:54:24;4.47;;;1.20;;
80136;SDS011;69466;55.948;37.484;2023-08-21T07:56:50;5.22;;;1.40;;
80136;SDS011;69466;55.948;37.484;2023-08-21T07:59:16;4.07;;;1.17;;
80136;SDS011;69466;55.948;37.484;2023-08-21T08:01:42;4.88;;;1.33;;
80136;SDS011;69466;55.948;37.484;2023-08-21T08:04:08;3.03;;;1.15;;
80136;SDS011;69466;55.948;37.484;2023-08-21T08:06:36;5.00;;;1.20;;
80136;SDS011;69466;55.948;37.484;2023-08-21T08:09:02;3.90;;;1.50;;
80136;SDS011;69466;55.948;37.484;2023-08-21T08:11:31;4.20;;;1.30;;
80136;SDS011;69466;55.948;37.484;2023-08-21T08:13:57;3.53;;;1.20;;
80136;SDS011;69466;55.948;37.484;2023-08-21T08:16:23;3.92;;;1.38;;
80136;SDS011;69466;55.948;37.484;2023-08-21T08:18:48;3.97;;;1.48;;
80136;SDS011;69466;55.948;37.484;2023-08-21T08:21:15;3.70;;;1.42;;
80136;SDS011;69466;55.948;37.484;2023-08-21T08:23:41;2.70;;;1.27;;
80136;SDS011;69466;55.948;37.484;2023-08-21T08:26:07;2.92;;;1.15;;
80136;SDS011;69466;55.948;37.484;2023-08-21T08:28:34;2.78;;;1.25;;
80136;SDS011;69466;55.948;37.484;2023-08-21T08:31:00;3.35;;;1.55;;
80136;SDS011;69466;55.948;37.484;2023-08-21T08:33:27;3.83;;;1.30;;
80136;SDS011;69466;55.948;37.484;2023-08-21T08:35:53;10.27;;;2.35;;
80136;SDS011;69466;55.948;37.484;2023-08-21T08:38:19;8.02;;;2.03;;
80136;SDS011;69466;55.948;37.484;2023-08-21T08:40:45;4.25;;;1.85;;
80136;SDS011;69466;55.948;37.484;2023-08-21T08:43:12;3.42;;;1.50;;
80136;SDS011;69466;55.948;37.484;2023-08-21T08:45:43;3.75;;;1.27;;
80136;SDS011;69466;55.948;37.484;2023-08-21T08:48:13;3.65;;;1.50;;
80136;SDS011;69466;55.948;37.484;2023-08-21T08:50:39;4.47;;;1.15;;
80136;SDS011;69466;55.948;37.484;2023-08-21T08:53:06;3.35;;;1.40;;
80136;SDS011;69466;55.948;37.484;2023-08-21T08:55:32;2.85;;;1.20;;
80136;SDS011;69466;55.948;37.484;2023-08-21T08:57:58;5.10;;;2.70;;
80136;SDS011;69466;55.948;37.484;2023-08-21T09:00:24;3.88;;;1.15;;
80136;SDS011;69466;55.948;37.484;2023-08-21T09:02:51;3.97;;;1.40;;
80136;SDS011;69466;55.948;37.484;2023-08-21T09:05:17;5.70;;;1.67;;
80136;SDS011;69466;55.948;37.484;2023-08-21T09:07:43;4.55;;;1.33;;
80136;SDS011;69466;55.948;37.484;2023-08-21T09:10:13;3.75;;;1.23;;
80136;SDS011;69466;55.948;37.484;2023-08-21T09:12:40;2.58;;;1.20;;
80136;SDS011;69466;55.948;37.484;2023-08-21T09:15:07;2.35;;;1.02;;
80136;SDS011;69466;55.948;37.484;2023-08-21T09:17:33;3.95;;;1.17;;
80136;SDS011;69466;55.948;37.484;2023-08-21T09:20:03;2.97;;;1.10;;
80136;SDS011;69466;55.948;37.484;2023-08-21T09:22:30;3.83;;;1.70;;
80136;SDS011;69466;55.948;37.484;2023-08-21T09:25:14;4.07;;;1.40;;
80136;SDS011;69466;55.948;37.484;2023-08-21T09:27:41;6.22;;;1.40;;
80136;SDS011;69466;55.948;37.484;2023-08-21T09:30:10;5.60;;;1.27;;
80136;SDS011;69466;55.948;37.484;2023-08-21T09:32:54;6.70;;;1.67;;
80136;SDS011;69466;55.948;37.484;2023-08-21T09:35:22;6.63;;;1.55;;
80136;SDS011;69466;55.948;37.484;2023-08-21T09:37:49;5.75;;;1.92;;
80136;SDS011;69466;55.948;37.484;2023-08-21T09:40:20;7.25;;;1.67;;
80136;SDS011;69466;55.948;37.484;2023-08-21T09:42:51;4.07;;;1.45;;
80136;SDS011;69466;55.948;37.484;2023-08-21T09:45:20;3.78;;;1.50;;
80136;SDS011;69466;55.948;37.484;2023-08-21T09:47:50;6.10;;;1.80;;
80136;SDS011;69466;55.948;37.484;2023-08-21T09:50:18;4.97;;;1.60;;
80136;SDS011;69466;55.948;37.484;2023-08-21T09:52:45;8.75;;;2.08;;
80136;SDS011;69466;55.948;37.484;2023-08-21T09:55:31;9.07;;;2.15;;
80136;SDS011;69466;55.948;37.484;2023-08-21T09:57:58;4.20;;;1.50;;
80136;SDS011;69466;55.948;37.484;2023-08-21T10:00:29;3.58;;;1.20;;
80136;SDS011;69466;55.948;37.484;2023-08-21T10:02:58;3.63;;;1.50;;
80136;SDS011;69466;55.948;37.484;2023-08-21T10:05:27;2.97;;;1.10;;
80136;SDS011;69466;55.948;37.484;2023-08-21T10:07:56;5.05;;;1.67;;
80136;SDS011;69466;55.948;37.484;2023-08-21T10:10:24;4.50;;;1.70;;
80136;SDS011;69466;55.948;37.484;2023-08-21T10:12:51;2.70;;;1.02;;
80136;SDS011;69466;55.948;37.484;2023-08-21T10:15:17;3.40;;;1.10;;
80136;SDS011;69466;55.948;37.484;2023-08-21T10:17:43;3.50;;;1.10;;
80136;SDS011;69466;55.948;37.484;2023-08-21T10:20:09;3.58;;;1.15;;
80136;SDS011;69466;55.948;37.484;2023-08-21T10:22:42;4.55;;;1.15;;
80136;SDS011;69466;55.948;37.484;2023-08-21T10:25:15;3.30;;;1.30;;
80136;SDS011;69466;55.948;37.484;2023-08-21T10:27:52;13.50;;;1.45;;
80136;SDS011;69466;55.948;37.484;2023-08-21T10:30:22;6.00;;;1.23;;
80136;SDS011;69466;55.948;37.484;2023-08-21T10:32:53;4.00;;;1.10;;
80136;SDS011;69466;55.948;37.484;2023-08-21T10:35:22;4.65;;;1.40;;
80136;SDS011;69466;55.948;37.484;2023-08-21T10:40:43;4.63;;;1.70;;
80136;SDS011;69466;55.948;37.484;2023-08-21T10:43:42;2.75;;;1.00;;
80136;SDS011;69466;55.948;37.484;2023-08-21T10:46:10;3.95;;;1.15;;
80136;SDS011;69466;55.948;37.484;2023-08-21T10:48:37;6.22;;;1.42;;
80136;SDS011;69466;55.948;37.484;2023-08-21T10:51:07;3.72;;;1.25;;
80136;SDS011;69466;55.948;37.484;2023-08-21T10:53:35;4.63;;;1.27;;
80136;SDS011;69466;55.948;37.484;2023-08-21T10:56:04;3.22;;;1.67;;
80136;SDS011;69466;55.948;37.484;2023-08-21T10:58:44;7.55;;;1.70;;
80136;SDS011;69466;55.948;37.484;2023-08-21T11:01:16;4.25;;;1.25;;
80136;SDS011;69466;55.948;37.484;2023-08-21T11:03:46;3.92;;;1.33;;
80136;SDS011;69466;55.948;37.484;2023-08-21T11:06:12;4.10;;;2.00;;
80136;SDS011;69466;55.948;37.484;2023-08-21T11:08:38;4.60;;;1.45;;
80136;SDS011;69466;55.948;37.484;2023-08-21T11:11:04;3.50;;;1.23;;
80136;SDS011;69466;55.948;37.484;2023-08-21T11:13:32;5.07;;;1.60;;
80136;SDS011;69466;55.948;37.484;2023-08-21T11:16:02;6.75;;;2.33;;
80136;SDS011;69466;55.948;37.484;2023-08-21T11:18:30;4.45;;;1.17;;
80136;SDS011;69466;55.948;37.484;2023-08-21T11:21:10;4.57;;;1.48;;
80136;SDS011;69466;55.948;37.484;2023-08-21T11:23:37;3.10;;;1.30;;
80136;SDS011;69466;55.948;37.484;2023-08-21T11:26:06;4.20;;;1.40;;
80136;SDS011;69466;55.948;37.484;2023-08-21T11:28:35;4.15;;;1.60;;
80136;SDS011;69466;55.948;37.484;2023-08-21T11:31:03;4.47;;;1.50;;
80136;SDS011;69466;55.948;37.484;2023-08-21T11:33:30;3.70;;;1.40;;
80136;SDS011;69466;55.948;37.484;2023-08-21T11:35:59;3.75;;;1.40;;
80136;SDS011;69466;55.948;37.484;2023-08-21T11:38:26;3.10;;;1.27;;
80136;SDS011;69466;55.948;37.484;2023-08-21T11:41:00;3.65;;;1.33;;
80136;SDS011;69466;55.948;37.484;2023-08-21T11:43:34;5.43;;;1.30;;
80136;SDS011;69466;55.948;37.484;2023-08-21T11:46:05;2.92;;;1.08;;
80136;SDS011;69466;55.948;37.484;2023-08-21T11:48:34;3.78;;;1.30;;
80136;SDS011;69466;55.948;37.484;2023-08-21T11:51:02;3.85;;;1.60;;
80136;SDS011;69466;55.948;37.484;2023-08-21T11:53:35;6.60;;;1.50;;
80136;SDS011;69466;55.948;37.484;2023-08-21T11:56:14;4.20;;;1.40;;
80136;SDS011;69466;55.948;37.484;2023-08-21T11:58:45;4.88;;;1.75;;
80136;SDS011;69466;55.948;37.484;2023-08-21T12:01:16;6.35;;;2.05;;
80136;SDS011;69466;55.948;37.484;2023-08-21T12:03:46;4.60;;;1.75;;
80136;SDS011;69466;55.948;37.484;2023-08-21T12:06:20;3.45;;;1.13;;
80136;SDS011;69466;55.948;37.484;2023-08-21T12:08:49;3.28;;;1.38;;
80136;SDS011;69466;55.948;37.484;2023-08-21T12:11:15;3.35;;;1.40;;
80136;SDS011;69466;55.948;37.484;2023-08-21T12:13:41;3.95;;;1.63;;
80136;SDS011;69466;55.948;37.484;2023-08-21T12:16:07;4.65;;;1.60;;
80136;SDS011;69466;55.948;37.484;2023-08-21T12:18:36;3.55;;;1.75;;
80136;SDS011;69466;55.948;37.484;2023-08-21T12:21:02;4.40;;;1.70;;
80136;SDS011;69466;55.948;37.484;2023-08-21T12:23:28;4.93;;;1.35;;
80136;SDS011;69466;55.948;37.484;2023-08-21T12:25:57;2.85;;;1.02;;
80136;SDS011;69466;55.948;37.484;2023-08-21T12:28:22;2.53;;;1.13;;
80136;SDS011;69466;55.948;37.484;2023-08-21T12:30:48;3.03;;;1.40;;
80136;SDS011;69466;55.948;37.484;2023-08-21T12:33:14;6.05;;;1.55;;
80136;SDS011;69466;55.948;37.484;2023-08-21T12:35:40;4.40;;;1.50;;
80136;SDS011;69466;55.948;37.484;2023-08-21T12:38:10;3.67;;;1.23;;
80136;SDS011;69466;55.948;37.484;2023-08-21T12:40:38;4.03;;;1.50;;
80136;SDS011;69466;55.948;37.484;2023-08-21T12:43:05;5.88;;;1.60;;
80136;SDS011;69466;55.948;37.484;2023-08-21T12:45:30;4.22;;;1.50;;
80136;SDS011;69466;55.948;37.484;2023-08-21T12:47:57;3.45;;;1.10;;
80136;SDS011;69466;55.948;37.484;2023-08-21T12:50:23;7.03;;;1.48;;
80136;SDS011;69466;55.948;37.484;2023-08-21T12:52:49;4.55;;;1.60;;
80136;SDS011;69466;55.948;37.484;2023-08-21T12:55:15;2.47;;;0.95;;
80136;SDS011;69466;55.948;37.484;2023-08-21T12:57:45;3.50;;;1.40;;
80136;SDS011;69466;55.948;37.484;2023-08-21T13:00:17;4.07;;;1.80;;
80136;SDS011;69466;55.948;37.484;2023-08-21T13:02:43;5.80;;;1.35;;
80136;SDS011;69466;55.948;37.484;2023-08-21T13:05:12;4.13;;;1.23;;
80136;SDS011;69466;55.948;37.484;2023-08-21T13:07:38;5.20;;;1.15;;
80136;SDS011;69466;55.948;37.484;2023-08-21T13:10:04;4.22;;;1.85;;
80136;SDS011;69466;55.948;37.484;2023-08-21T13:12:31;5.82;;;1.48;;
80136;SDS011;69466;55.948;37.484;2023-08-21T13:14:56;9.23;;;2.65;;
80136;SDS011;69466;55.948;37.484;2023-08-21T13:17:24;4.32;;;2.20;;
80136;SDS011;69466;55.948;37.484;2023-08-21T13:19:50;5.65;;;1.88;;
80136;SDS011;69466;55.948;37.484;2023-08-21T13:22:20;6.47;;;1.88;;
80136;SDS011;69466;55.948;37.484;2023-08-21T13:24:46;4.63;;;1.67;;
80136;SDS011;69466;55.948;37.484;2023-08-21T13:27:11;4.55;;;1.90;;
80136;SDS011;69466;55.948;37.484;2023-08-21T13:29:37;10.45;;;2.85;;
80136;SDS011;69466;55.948;37.484;2023-08-21T13:32:05;6.25;;;2.00;;
80136;SDS011;69466;55.948;37.484;2023-08-21T13:34:31;4.80;;;1.58;;
80136;SDS011;69466;55.948;37.484;2023-08-21T13:36:57;4.00;;;1.13;;
80136;SDS011;69466;55.948;37.484;2023-08-21T13:39:28;4.25;;;1.30;;
80136;SDS011;69466;55.948;37.484;2023-08-21T13:41:57;2.88;;;1.13;;
80136;SDS011;69466;55.948;37.484;2023-08-21T13:44:23;4.05;;;1.20;;
80136;SDS011;69466;55.948;37.484;2023-08-21T13:46:49;5.38;;;1.48;;
80136;SDS011;69466;55.948;37.484;2023-08-21T13:49:15;12.00;;;1.70;;
80136;SDS011;69466;55.948;37.484;2023-08-21T13:51:41;4.13;;;1.60;;
80136;SDS011;69466;55.948;37.484;2023-08-21T13:54:12;2.95;;;1.38;;
80136;SDS011;69466;55.948;37.484;2023-08-21T13:56:38;4.18;;;1.65;;
80136;SDS011;69466;55.948;37.484;2023-08-21T13:59:04;3.50;;;1.40;;
80136;SDS011;69466;55.948;37.484;2023-08-21T14:01:30;4.75;;;1.13;;
80136;SDS011;69466;55.948;37.484;2023-08-21T14:03:55;3.72;;;1.20;;
80136;SDS011;69466;55.948;37.484;2023-08-21T14:06:24;8.20;;;1.27;;
80136;SDS011;69466;55.948;37.484;2023-08-21T14:08:50;5.00;;;2.17;;
80136;SDS011;69466;55.948;37.484;2023-08-21T14:11:16;3.60;;;1.63;;
80136;SDS011;69466;55.948;37.484;2023-08-21T14:13:42;7.50;;;2.40;;
80136;SDS011;69466;55.948;37.484;2023-08-21T14:16:07;4.47;;;1.80;;
80136;SDS011;69466;55.948;37.484;2023-08-21T14:18:33;4.95;;;1.40;;
80136;SDS011;69466;55.948;37.484;2023-08-21T14:20:59;3.90;;;1.08;;
80136;SDS011;69466;55.948;37.484;2023-08-21T14:23:29;3.53;;;1.20;;
80136;SDS011;69466;55.948;37.484;2023-08-21T14:25:56;3.53;;;1.40;;
80136;SDS011;69466;55.948;37.484;2023-08-21T14:28:21;4.60;;;1.40;;
80136;SDS011;69466;55.948;37.484;2023-08-21T14:30:48;5.97;;;1.98;;
80136;SDS011;69466;55.948;37.484;2023-08-21T14:33:13;4.20;;;1.90;;
80136;SDS011;69466;55.948;37.484;2023-08-21T14:35:40;5.78;;;1.80;;
80136;SDS011;69466;55.948;37.484;2023-08-21T14:38:08;4.65;;;2.03;;
80136;SDS011;69466;55.948;37.484;2023-08-21T14:40:35;3.85;;;1.48;;